Time;durP1;ratioP1;P1;durP2;ratioP2;P2;SDS_P1;SDS_P2;PMS_P1;PMS_P2;Temp;Humidity;BMP_temperature;BMP_pressure;BME280_temperature;BME280_humidity;BME280_pressure;Samples;Min_cycle;Max_cycle;Signal;HPM_P1;HPM_P2
2023/11/12 00:00:51;;;;;;;16.55;7.55;;;;;;;;;;5027560;28;20348;-68
2023/11/12 00:03:16;;;;;;;17.50;7.50;;;;;;;;;;5039415;28;20027;-68
2023/11/12 00:05:41;;;;;;;8.43;4.82;;;;;;;;;;5030077;28;20268;-68
2023/11/12 00:08:07;;;;;;;16.92;6.72;;;;;;;;;;5033308;28;20029;-68
2023/11/12 00:10:32;;;;;;;13.55;6.88;;;;;;;;;;5027585;28;20033;-68
2023/11/12 00:12:58;;;;;;;12.15;5.90;;;;;;;;;;5037157;28;20029;-68
2023/11/12 00:15:24;;;;;;;11.52;4.32;;;;;;;;;;5033436;28;20017;-68
2023/11/12 00:17:49;;;;;;;18.27;5.80;;;;;;;;;;5028433;28;20429;-68
2023/11/12 00:20:18;;;;;;;12.80;6.23;;;;;;;;;;5033002;28;20055;-68
2023/11/12 00:22:43;;;;;;;14.05;6.50;;;;;;;;;;5028423;28;20264;-68
2023/11/12 00:25:10;;;;;;;11.85;6.60;;;;;;;;;;5029521;28;20028;-68
2023/11/12 00:27:35;;;;;;;12.80;5.57;;;;;;;;;;5034243;28;20020;-68
2023/11/12 00:30:00;;;;;;;11.10;5.88;;;;;;;;;;5033494;28;20029;-68
2023/11/12 00:32:25;;;;;;;21.58;5.72;;;;;;;;;;5032025;28;20029;-68
2023/11/12 00:34:51;;;;;;;10.40;5.10;;;;;;;;;;5030158;28;20017;-68
2023/11/12 00:37:18;;;;;;;15.23;5.53;;;;;;;;;;5024664;28;20740;-68
2023/11/12 00:39:43;;;;;;;15.93;6.28;;;;;;;;;;5036814;28;20032;-68
2023/11/12 00:42:08;;;;;;;11.83;6.33;;;;;;;;;;5029977;28;20017;-68
2023/11/12 00:44:33;;;;;;;11.70;6.03;;;;;;;;;;5033462;28;20268;-68
2023/11/12 00:46:58;;;;;;;13.40;5.77;;;;;;;;;;5037168;28;20259;-68
2023/11/12 00:49:25;;;;;;;11.63;6.22;;;;;;;;;;5026886;28;20314;-67
2023/11/12 00:51:50;;;;;;;18.83;6.33;;;;;;;;;;5029956;28;20454;-67
2023/11/12 00:54:16;;;;;;;14.43;6.10;;;;;;;;;;5029339;28;20264;-67
2023/11/12 00:56:41;;;;;;;16.48;6.32;;;;;;;;;;5023796;28;20105;-67
2023/11/12 00:59:06;;;;;;;14.27;6.18;;;;;;;;;;5029071;28;20049;-68
2023/11/12 01:01:32;;;;;;;15.02;6.72;;;;;;;;;;5031846;28;20021;-67
2023/11/12 01:03:57;;;;;;;19.60;7.07;;;;;;;;;;5029507;28;20444;-67
2023/11/12 01:06:22;;;;;;;13.95;6.50;;;;;;;;;;5024717;28;20351;-69
2023/11/12 01:08:48;;;;;;;17.13;6.60;;;;;;;;;;5026959;28;20433;-67
2023/11/12 01:11:13;;;;;;;16.77;6.60;;;;;;;;;;5033878;28;20037;-68
2023/11/12 01:13:38;;;;;;;12.85;6.07;;;;;;;;;;5036784;28;20029;-68
2023/11/12 01:16:03;;;;;;;13.20;5.82;;;;;;;;;;5026817;28;20020;-68
2023/11/12 01:18:31;;;;;;;10.57;6.13;;;;;;;;;;5024959;28;20438;-68
2023/11/12 01:20:57;;;;;;;12.18;6.10;;;;;;;;;;5031426;28;20024;-67
2023/11/12 01:23:22;;;;;;;13.05;6.50;;;;;;;;;;5029197;28;20450;-67
2023/11/12 01:25:47;;;;;;;14.82;7.03;;;;;;;;;;5025307;28;20034;-67
2023/11/12 01:28:12;;;;;;;10.45;5.85;;;;;;;;;;5020897;28;20018;-68
2023/11/12 01:30:37;;;;;;;13.68;6.22;;;;;;;;;;5029129;28;20026;-67
2023/11/12 01:33:03;;;;;;;13.63;7.00;;;;;;;;;;5029011;28;20029;-67
2023/11/12 01:35:29;;;;;;;11.63;6.10;;;;;;;;;;5027691;28;20017;-68
2023/11/12 01:37:54;;;;;;;18.15;6.13;;;;;;;;;;5029945;28;20017;-68
2023/11/12 01:40:20;;;;;;;17.52;6.97;;;;;;;;;;5029058;28;20032;-67
2023/11/12 01:42:45;;;;;;;13.73;7.05;;;;;;;;;;5026122;28;20021;-67
2023/11/12 01:45:11;;;;;;;13.63;6.13;;;;;;;;;;5026170;28;20029;-68
2023/11/12 01:47:37;;;;;;;14.07;6.43;;;;;;;;;;5028241;28;20030;-67
2023/11/12 01:50:03;;;;;;;11.23;5.82;;;;;;;;;;5029726;28;20036;-68
2023/11/12 01:52:29;;;;;;;13.32;5.75;;;;;;;;;;5031533;28;20366;-67
2023/11/12 01:54:55;;;;;;;11.98;5.97;;;;;;;;;;5039785;28;20037;-67
2023/11/12 01:57:20;;;;;;;15.80;6.35;;;;;;;;;;5028747;28;20025;-67
2023/11/12 01:59:45;;;;;;;18.43;6.73;;;;;;;;;;5031869;28;20092;-67
2023/11/12 02:02:11;;;;;;;14.10;6.78;;;;;;;;;;5024861;28;20256;-67
2023/11/12 02:04:36;;;;;;;14.80;7.30;;;;;;;;;;5030548;28;20056;-68
2023/11/12 02:07:01;;;;;;;21.20;7.03;;;;;;;;;;5028226;28;20474;-67
2023/11/12 02:09:27;;;;;;;17.38;7.35;;;;;;;;;;5033811;28;20034;-67
2023/11/12 02:11:54;;;;;;;19.70;7.20;;;;;;;;;;5031823;28;20010;-68
2023/11/12 02:14:20;;;;;;;13.48;6.15;;;;;;;;;;5037781;28;20018;-68
2023/11/12 02:16:46;;;;;;;15.13;6.85;;;;;;;;;;5033951;28;20014;-68
2023/11/12 02:19:24;;;;;;;12.32;6.07;;;;;;;;;;5032559;28;20021;-67
2023/11/12 02:21:49;;;;;;;13.43;7.15;;;;;;;;;;5032220;28;20038;-67
2023/11/12 02:24:14;;;;;;;13.30;7.10;;;;;;;;;;5028531;28;20420;-67
2023/11/12 02:26:40;;;;;;;14.93;7.57;;;;;;;;;;5032204;28;20033;-68
2023/11/12 02:29:06;;;;;;;13.55;6.97;;;;;;;;;;5032276;28;20292;-68
2023/11/12 02:31:32;;;;;;;13.05;6.88;;;;;;;;;;5034857;28;20515;-68
2023/11/12 02:33:58;;;;;;;19.80;7.78;;;;;;;;;;5027854;28;20022;-67
2023/11/12 02:36:25;;;;;;;15.00;7.20;;;;;;;;;;5033893;28;20028;-67
2023/11/12 02:38:51;;;;;;;19.15;6.65;;;;;;;;;;5032418;28;20014;-67
2023/11/12 02:41:18;;;;;;;16.55;6.45;;;;;;;;;;5034235;28;20033;-67
2023/11/12 02:43:43;;;;;;;15.88;7.00;;;;;;;;;;5028718;28;20017;-67
2023/11/12 02:46:09;;;;;;;12.65;6.90;;;;;;;;;;5038300;28;20025;-67
2023/11/12 02:48:46;;;;;;;17.45;6.55;;;;;;;;;;5032065;28;20025;-67
2023/11/12 02:51:12;;;;;;;18.00;7.68;;;;;;;;;;5036509;28;20122;-67
2023/11/12 02:53:37;;;;;;;14.63;6.73;;;;;;;;;;5028562;28;20045;-67
2023/11/12 02:56:02;;;;;;;12.55;6.38;;;;;;;;;;5031157;28;20279;-67
2023/11/12 02:58:27;;;;;;;20.10;7.25;;;;;;;;;;5031469;28;20029;-67
2023/11/12 03:00:53;;;;;;;14.33;6.87;;;;;;;;;;5037812;28;20071;-68
2023/11/12 03:03:18;;;;;;;14.15;6.68;;;;;;;;;;5035081;28;20259;-67
2023/11/12 03:05:43;;;;;;;17.50;7.80;;;;;;;;;;5030925;28;20080;-68
2023/11/12 03:08:08;;;;;;;17.40;7.40;;;;;;;;;;5031636;28;20017;-68
2023/11/12 03:10:33;;;;;;;14.80;7.35;;;;;;;;;;5033400;28;20030;-68
2023/11/12 03:12:59;;;;;;;16.85;6.90;;;;;;;;;;5030790;28;20079;-68
2023/11/12 03:15:25;;;;;;;13.02;6.32;;;;;;;;;;5033227;28;20013;-69
2023/11/12 03:17:51;;;;;;;14.77;7.25;;;;;;;;;;5032898;28;20017;-67
2023/11/12 03:20:16;;;;;;;12.85;7.20;;;;;;;;;;5037891;28;20466;-68
2023/11/12 03:22:41;;;;;;;26.10;7.50;;;;;;;;;;5036944;28;20059;-67
2023/11/12 03:25:09;;;;;;;15.88;7.28;;;;;;;;;;5032771;28;20260;-67
2023/11/12 03:30:37;;;;;;;13.88;6.60;;;;;;;;;;5034620;28;20075;-68
2023/11/12 03:33:03;;;;;;;21.50;7.63;;;;;;;;;;5034253;28;20026;-68
2023/11/12 03:35:28;;;;;;;16.55;7.07;;;;;;;;;;5033634;28;20017;-68
2023/11/12 03:37:53;;;;;;;17.42;7.03;;;;;;;;;;5029436;28;20020;-67
2023/11/12 03:40:19;;;;;;;13.90;6.47;;;;;;;;;;5031324;28;20102;-67
2023/11/12 03:42:44;;;;;;;13.15;6.22;;;;;;;;;;5033914;28;20341;-68
2023/11/12 03:45:10;;;;;;;11.48;6.45;;;;;;;;;;5033795;28;20363;-68
2023/11/12 03:47:35;;;;;;;12.43;7.15;;;;;;;;;;5029523;28;20032;-67
2023/11/12 03:50:01;;;;;;;12.77;6.77;;;;;;;;;;5030174;28;20080;-68
2023/11/12 03:52:26;;;;;;;16.58;6.68;;;;;;;;;;5029306;28;20272;-68
2023/11/12 03:54:52;;;;;;;16.00;6.47;;;;;;;;;;5033891;28;20021;-68
2023/11/12 03:57:18;;;;;;;16.35;7.05;;;;;;;;;;5033708;28;20260;-67
2023/11/12 03:59:44;;;;;;;17.42;7.18;;;;;;;;;;5030815;28;20028;-68
2023/11/12 04:02:09;;;;;;;13.20;6.15;;;;;;;;;;5028746;28;20029;-68
2023/11/12 04:04:34;;;;;;;12.15;6.50;;;;;;;;;;5034858;28;20436;-68
2023/11/12 04:06:59;;;;;;;17.75;7.35;;;;;;;;;;5029982;28;20099;-68
2023/11/12 04:09:25;;;;;;;19.77;6.32;;;;;;;;;;5032068;28;20031;-67
2023/11/12 04:11:50;;;;;;;17.20;9.30;;;;;;;;;;5030118;28;20136;-68
2023/11/12 04:14:15;;;;;;;20.63;6.70;;;;;;;;;;5030590;28;20053;-68
2023/11/12 04:16:40;;;;;;;11.85;6.47;;;;;;;;;;5028272;28;20013;-68
2023/11/12 04:19:06;;;;;;;12.07;6.53;;;;;;;;;;5028738;28;20094;-68
2023/11/12 04:21:31;;;;;;;11.20;5.97;;;;;;;;;;5030182;28;20105;-67
2023/11/12 04:23:56;;;;;;;22.08;5.28;;;;;;;;;;5035580;28;20092;-68
2023/11/12 04:26:22;;;;;;;13.95;5.53;;;;;;;;;;5030753;28;20045;-67
2023/11/12 04:28:47;;;;;;;13.43;5.93;;;;;;;;;;5012277;28;20017;-68
2023/11/12 04:31:12;;;;;;;12.02;6.03;;;;;;;;;;5030491;28;20063;-68
2023/11/12 04:33:37;;;;;;;14.20;5.77;;;;;;;;;;5031784;28;20022;-67
2023/11/12 04:36:03;;;;;;;11.97;5.73;;;;;;;;;;5028691;28;21073;-68
2023/11/12 04:38:28;;;;;;;10.70;6.00;;;;;;;;;;5030164;28;20263;-67
2023/11/12 04:40:53;;;;;;;8.55;5.25;;;;;;;;;;5028451;28;20033;-68
2023/11/12 04:43:18;;;;;;;10.68;5.10;;;;;;;;;;5031391;28;20461;-68
2023/11/12 04:45:44;;;;;;;16.23;5.63;;;;;;;;;;5028501;28;20032;-67
2023/11/12 04:48:09;;;;;;;11.68;5.85;;;;;;;;;;5024638;28;20490;-68
2023/11/12 04:50:35;;;;;;;13.07;6.57;;;;;;;;;;5036360;28;20575;-68
2023/11/12 04:53:01;;;;;;;10.32;5.72;;;;;;;;;;5031390;28;20053;-68
2023/11/12 04:55:26;;;;;;;15.02;5.82;;;;;;;;;;5032803;28;20061;-68
2023/11/12 04:57:51;;;;;;;10.35;5.78;;;;;;;;;;5029508;28;20025;-68
2023/11/12 05:00:16;;;;;;;16.67;5.87;;;;;;;;;;5027592;28;20032;-68
2023/11/12 05:02:43;;;;;;;12.27;5.57;;;;;;;;;;5029925;28;20275;-68
2023/11/12 05:05:10;;;;;;;15.20;5.88;;;;;;;;;;5026748;28;20727;-68
2023/11/12 05:07:35;;;;;;;10.50;5.55;;;;;;;;;;5027411;28;20025;-68
2023/11/12 05:10:01;;;;;;;12.53;6.07;;;;;;;;;;5029088;28;20029;-68
2023/11/12 05:12:27;;;;;;;12.88;6.00;;;;;;;;;;5030263;28;20272;-68
2023/11/12 05:14:52;;;;;;;9.93;5.25;;;;;;;;;;5025936;28;20105;-67
2023/11/12 05:17:17;;;;;;;16.93;6.00;;;;;;;;;;5022640;28;20041;-67
2023/11/12 05:19:42;;;;;;;14.40;6.03;;;;;;;;;;5036349;28;20897;-68
2023/11/12 05:22:07;;;;;;;19.92;5.85;;;;;;;;;;5035888;28;20287;-68
2023/11/12 05:24:34;;;;;;;11.88;5.18;;;;;;;;;;5034313;28;20029;-67
2023/11/12 05:27:01;;;;;;;12.77;5.80;;;;;;;;;;5029026;28;20032;-68
2023/11/12 05:29:27;;;;;;;10.98;5.65;;;;;;;;;;5029447;28;20107;-68
2023/11/12 05:31:52;;;;;;;13.18;5.90;;;;;;;;;;5027381;28;20060;-68
2023/11/12 05:34:17;;;;;;;18.03;5.33;;;;;;;;;;5030571;28;20474;-68
2023/11/12 05:36:42;;;;;;;11.90;5.50;;;;;;;;;;5026367;28;20268;-68
2023/11/12 05:39:07;;;;;;;12.97;4.53;;;;;;;;;;5028562;28;20715;-68
2023/11/12 05:41:32;;;;;;;8.05;5.05;;;;;;;;;;5028850;28;20269;-67
2023/11/12 05:43:58;;;;;;;8.95;5.35;;;;;;;;;;5030097;28;20040;-68
2023/11/12 05:46:23;;;;;;;12.95;5.53;;;;;;;;;;5033324;28;20041;-67
2023/11/12 05:48:48;;;;;;;9.38;5.10;;;;;;;;;;5032915;28;20029;-67
2023/11/12 05:51:13;;;;;;;8.90;4.80;;;;;;;;;;5033206;28;20024;-68
2023/11/12 05:53:38;;;;;;;8.68;5.35;;;;;;;;;;5041438;28;20605;-68
2023/11/12 05:56:04;;;;;;;9.67;5.33;;;;;;;;;;5030738;28;20026;-68
2023/11/12 05:58:30;;;;;;;13.52;6.10;;;;;;;;;;5032849;28;20351;-68
2023/11/12 06:00:55;;;;;;;12.73;4.93;;;;;;;;;;5032318;28;20488;-67
2023/11/12 06:03:23;;;;;;;11.15;5.55;;;;;;;;;;5032943;28;20026;-68
2023/11/12 06:05:48;;;;;;;11.82;5.22;;;;;;;;;;5033274;28;20036;-67
2023/11/12 06:08:14;;;;;;;10.87;5.47;;;;;;;;;;5032960;28;20571;-68
2023/11/12 06:10:43;;;;;;;9.90;4.90;;;;;;;;;;5032429;28;20276;-68
2023/11/12 06:13:08;;;;;;;12.45;5.07;;;;;;;;;;5033869;28;20271;-67
2023/11/12 06:15:34;;;;;;;10.30;4.38;;;;;;;;;;5030811;28;20021;-67
2023/11/12 06:17:59;;;;;;;11.55;4.95;;;;;;;;;;5032258;28;20075;-68
2023/11/12 06:20:26;;;;;;;17.17;5.27;;;;;;;;;;5040857;28;20021;-67
2023/11/12 06:22:51;;;;;;;11.38;5.65;;;;;;;;;;5032325;28;20259;-68
2023/11/12 06:25:16;;;;;;;10.33;5.17;;;;;;;;;;5033323;28;20032;-68
2023/11/12 06:27:41;;;;;;;15.52;5.80;;;;;;;;;;5031496;28;20256;-67
2023/11/12 06:30:09;;;;;;;8.97;4.53;;;;;;;;;;5032389;28;20029;-67
2023/11/12 06:32:35;;;;;;;10.60;5.00;;;;;;;;;;5032363;28;20265;-68
2023/11/12 06:35:00;;;;;;;10.40;4.95;;;;;;;;;;5031882;28;20505;-67
2023/11/12 06:37:25;;;;;;;8.93;4.75;;;;;;;;;;5031016;28;20028;-67
2023/11/12 06:39:50;;;;;;;8.32;4.75;;;;;;;;;;5032274;28;20022;-67
2023/11/12 06:42:16;;;;;;;7.97;4.90;;;;;;;;;;5032871;28;20152;-68
2023/11/12 06:44:41;;;;;;;14.77;4.55;;;;;;;;;;5030726;28;20533;-68
2023/11/12 06:47:06;;;;;;;14.40;6.05;;;;;;;;;;5033352;28;20083;-68
2023/11/12 06:49:32;;;;;;;12.60;5.28;;;;;;;;;;5031995;28;20029;-68
2023/11/12 06:51:57;;;;;;;12.25;5.20;;;;;;;;;;5042098;28;20009;-67
2023/11/12 06:54:23;;;;;;;14.65;5.28;;;;;;;;;;5036929;28;20028;-68
2023/11/12 06:56:48;;;;;;;14.03;5.47;;;;;;;;;;5024499;28;20076;-67
2023/11/12 06:59:13;;;;;;;11.55;5.32;;;;;;;;;;5030473;28;20252;-68
2023/11/12 07:01:38;;;;;;;11.27;5.03;;;;;;;;;;5040215;28;20029;-68
2023/11/12 07:04:04;;;;;;;9.38;5.43;;;;;;;;;;5024633;28;20036;-68
2023/11/12 07:06:29;;;;;;;13.02;4.57;;;;;;;;;;5031491;28;20083;-67
2023/11/12 07:08:54;;;;;;;11.45;5.32;;;;;;;;;;5031535;28;20053;-68
2023/11/12 07:11:19;;;;;;;13.35;6.15;;;;;;;;;;5031051;28;20249;-67
2023/11/12 07:13:44;;;;;;;12.98;5.75;;;;;;;;;;5031720;28;20029;-67
2023/11/12 07:16:16;;;;;;;14.57;5.53;;;;;;;;;;5032452;28;20022;-68
2023/11/12 07:18:42;;;;;;;11.23;5.63;;;;;;;;;;5032352;28;20263;-67
2023/11/12 07:21:07;;;;;;;19.05;5.97;;;;;;;;;;5032477;28;20025;-68
2023/11/12 07:23:32;;;;;;;17.77;6.82;;;;;;;;;;5034499;28;20032;-67
2023/11/12 07:25:57;;;;;;;11.37;4.97;;;;;;;;;;5029652;28;20498;-67
2023/11/12 07:28:23;;;;;;;11.55;5.80;;;;;;;;;;5031285;28;20267;-68
2023/11/12 07:30:48;;;;;;;14.15;6.35;;;;;;;;;;5032119;28;20029;-67
2023/11/12 07:33:13;;;;;;;11.37;5.90;;;;;;;;;;5030690;28;20323;-68
2023/11/12 07:35:38;;;;;;;9.93;5.30;;;;;;;;;;5038408;28;20272;-68
2023/11/12 07:38:04;;;;;;;13.93;5.05;;;;;;;;;;5031202;28;20621;-68
2023/11/12 07:40:30;;;;;;;14.05;5.35;;;;;;;;;;5025827;28;20277;-68
2023/11/12 07:42:55;;;;;;;15.70;5.25;;;;;;;;;;5030828;28;20029;-68
2023/11/12 07:45:21;;;;;;;10.27;5.00;;;;;;;;;;5029014;28;20116;-68
2023/11/12 07:47:46;;;;;;;10.10;5.50;;;;;;;;;;5029713;28;20033;-68
2023/11/12 07:50:11;;;;;;;13.13;5.07;;;;;;;;;;5029817;28;20025;-68
2023/11/12 07:52:37;;;;;;;10.07;4.97;;;;;;;;;;5029104;28;20277;-68
2023/11/12 07:55:02;;;;;;;15.38;5.47;;;;;;;;;;5028207;28;20048;-68
2023/11/12 07:57:27;;;;;;;12.20;5.50;;;;;;;;;;5028367;28;20026;-68
2023/11/12 07:59:53;;;;;;;10.68;5.13;;;;;;;;;;5028460;28;20112;-69
2023/11/12 08:02:18;;;;;;;7.88;4.80;;;;;;;;;;5029398;28;20021;-68
2023/11/12 08:04:43;;;;;;;8.75;4.70;;;;;;;;;;5029244;28;20029;-68
2023/11/12 08:07:09;;;;;;;8.97;4.73;;;;;;;;;;5028339;28;20053;-68
2023/11/12 08:09:36;;;;;;;9.05;4.60;;;;;;;;;;5029148;28;20433;-69
2023/11/12 08:12:01;;;;;;;8.27;4.20;;;;;;;;;;5028932;28;20017;-69
2023/11/12 08:14:26;;;;;;;13.65;3.95;;;;;;;;;;5029373;28;20031;-68
2023/11/12 08:16:51;;;;;;;10.25;4.10;;;;;;;;;;5029575;28;20479;-68
2023/11/12 08:19:16;;;;;;;7.10;3.63;;;;;;;;;;5027994;28;20026;-68
2023/11/12 08:21:41;;;;;;;5.17;3.20;;;;;;;;;;5029372;28;20045;-68
2023/11/12 08:24:07;;;;;;;5.30;3.70;;;;;;;;;;5029931;28;20354;-69
2023/11/12 08:26:38;;;;;;;4.85;3.00;;;;;;;;;;5028743;28;20260;-68
2023/11/12 08:29:06;;;;;;;6.90;2.67;;;;;;;;;;5019922;28;20044;-68
2023/11/12 08:31:32;;;;;;;6.68;2.85;;;;;;;;;;5027476;28;20025;-68
2023/11/12 08:33:57;;;;;;;10.03;3.17;;;;;;;;;;5027932;28;20032;-69
2023/11/12 08:36:22;;;;;;;4.57;2.78;;;;;;;;;;5028727;28;20036;-69
2023/11/12 08:38:47;;;;;;;4.10;2.60;;;;;;;;;;5029149;28;20529;-69
2023/11/12 08:41:12;;;;;;;5.40;2.60;;;;;;;;;;5028333;28;20244;-69
2023/11/12 08:43:38;;;;;;;6.55;2.65;;;;;;;;;;5029116;28;20018;-70
2023/11/12 08:46:03;;;;;;;8.40;3.20;;;;;;;;;;5025724;28;20033;-69
2023/11/12 08:48:31;;;;;;;4.05;2.85;;;;;;;;;;5028585;28;20358;-69
2023/11/12 08:50:58;;;;;;;8.98;3.25;;;;;;;;;;5028340;28;20059;-68
2023/11/12 08:53:23;;;;;;;6.47;3.22;;;;;;;;;;5028057;28;20021;-68
2023/11/12 08:55:48;;;;;;;7.53;3.28;;;;;;;;;;5026005;28;20094;-68
2023/11/12 08:58:13;;;;;;;7.53;2.90;;;;;;;;;;5028576;28;20079;-68
2023/11/12 09:00:39;;;;;;;6.40;2.67;;;;;;;;;;5027634;28;20037;-68
2023/11/12 09:03:04;;;;;;;5.50;2.25;;;;;;;;;;5028096;28;20072;-68
2023/11/12 09:05:29;;;;;;;5.55;2.70;;;;;;;;;;5028243;28;20105;-69
2023/11/12 09:07:54;;;;;;;3.88;2.45;;;;;;;;;;5027302;28;20535;-68
2023/11/12 09:10:20;;;;;;;6.23;3.37;;;;;;;;;;5027434;28;20517;-68
2023/11/12 09:12:45;;;;;;;5.57;2.60;;;;;;;;;;5028023;28;20256;-68
2023/11/12 09:15:11;;;;;;;4.10;2.63;;;;;;;;;;5024972;28;20375;-68
2023/11/12 09:17:36;;;;;;;7.88;2.78;;;;;;;;;;5037484;28;20040;-68
2023/11/12 09:20:03;;;;;;;5.53;2.40;;;;;;;;;;5027736;28;20029;-68
2023/11/12 09:22:29;;;;;;;4.78;3.00;;;;;;;;;;5030543;28;20272;-68
2023/11/12 09:24:54;;;;;;;9.80;2.45;;;;;;;;;;5012581;28;20033;-68
2023/11/12 09:27:20;;;;;;;4.80;2.50;;;;;;;;;;5028517;28;20028;-68
2023/11/12 09:29:46;;;;;;;8.63;2.78;;;;;;;;;;5026397;28;20341;-68
2023/11/12 09:32:11;;;;;;;5.55;3.10;;;;;;;;;;5027718;28;20354;-68
2023/11/12 09:34:37;;;;;;;6.07;2.30;;;;;;;;;;5021923;28;20029;-68
2023/11/12 09:37:03;;;;;;;8.73;3.00;;;;;;;;;;5028515;28;20017;-68
2023/11/12 09:39:29;;;;;;;8.63;2.08;;;;;;;;;;5032637;28;20647;-68
2023/11/12 09:41:54;;;;;;;5.88;2.40;;;;;;;;;;5029938;28;20033;-67
2023/11/12 09:44:21;;;;;;;3.38;1.63;;;;;;;;;;5023389;28;20022;-68
2023/11/12 09:46:53;;;;;;;8.50;2.40;;;;;;;;;;5026658;28;20037;-67
2023/11/12 09:49:19;;;;;;;3.00;1.73;;;;;;;;;;5033803;28;20096;-68
2023/11/12 09:51:44;;;;;;;6.10;3.00;;;;;;;;;;5029744;28;20532;-67
2023/11/12 09:54:10;;;;;;;6.75;2.28;;;;;;;;;;5032415;28;20493;-67
2023/11/12 09:56:36;;;;;;;10.27;3.00;;;;;;;;;;5028761;28;20489;-67
2023/11/12 09:59:01;;;;;;;4.78;1.85;;;;;;;;;;5028414;28;20116;-67
2023/11/12 10:01:26;;;;;;;4.80;2.10;;;;;;;;;;5034659;28;20028;-67
2023/11/12 10:03:51;;;;;;;2.17;1.23;;;;;;;;;;5036037;28;20272;-67
2023/11/12 10:06:20;;;;;;;9.20;3.97;;;;;;;;;;5026253;28;20018;-67
2023/11/12 10:08:45;;;;;;;9.60;2.95;;;;;;;;;;5025751;28;20017;-67
2023/11/12 10:11:14;;;;;;;2.60;1.27;;;;;;;;;;5028199;28;20067;-67
2023/11/12 10:13:40;;;;;;;16.38;2.58;;;;;;;;;;5021161;28;20260;-68
2023/11/12 10:16:20;;;;;;;3.75;2.35;;;;;;;;;;5033437;28;20493;-68
2023/11/12 10:18:45;;;;;;;7.03;2.63;;;;;;;;;;5027579;28;20504;-68
2023/11/12 10:21:10;;;;;;;7.70;2.87;;;;;;;;;;5027862;28;20052;-68
2023/11/12 10:23:35;;;;;;;9.53;2.90;;;;;;;;;;5028302;28;20279;-68
2023/11/12 10:26:09;;;;;;;10.97;3.03;;;;;;;;;;5028434;28;20268;-68
2023/11/12 10:28:34;;;;;;;5.13;2.33;;;;;;;;;;5034098;28;20273;-68
2023/11/12 10:31:00;;;;;;;5.45;3.38;;;;;;;;;;5027240;28;20426;-68
2023/11/12 10:33:27;;;;;;;2.20;0.85;;;;;;;;;;5034940;28;20491;-68
2023/11/12 10:35:52;;;;;;;6.95;2.67;;;;;;;;;;5030014;28;20024;-68
2023/11/12 10:38:18;;;;;;;4.65;0.98;;;;;;;;;;5036149;28;20021;-68
2023/11/12 10:40:56;;;;;;;7.93;2.42;;;;;;;;;;5033144;28;20025;-68
2023/11/12 10:43:21;;;;;;;5.07;1.27;;;;;;;;;;5029457;28;20025;-68
2023/11/12 10:45:47;;;;;;;12.18;2.80;;;;;;;;;;5030419;28;20037;-68
2023/11/12 10:48:13;;;;;;;4.85;2.53;;;;;;;;;;5038896;28;20108;-68
2023/11/12 10:50:38;;;;;;;5.72;2.50;;;;;;;;;;5025229;28;20112;-68
2023/11/12 10:53:05;;;;;;;5.95;2.47;;;;;;;;;;5024654;28;20006;-67
2023/11/12 10:55:30;;;;;;;8.20;2.70;;;;;;;;;;5030593;28;20025;-68
2023/11/12 10:57:57;;;;;;;6.25;2.28;;;;;;;;;;5031327;28;20033;-68
2023/11/12 11:00:23;;;;;;;3.75;1.48;;;;;;;;;;5031347;28;20060;-68
2023/11/12 11:02:49;;;;;;;5.10;2.65;;;;;;;;;;5039041;28;20021;-68
2023/11/12 11:05:15;;;;;;;6.28;1.88;;;;;;;;;;5041836;28;20022;-68
2023/11/12 11:07:40;;;;;;;8.55;1.90;;;;;;;;;;5034149;28;20029;-69
2023/11/12 11:10:06;;;;;;;11.32;2.95;;;;;;;;;;5031686;28;20026;-69
2023/11/12 11:12:32;;;;;;;11.73;2.83;;;;;;;;;;5036686;28;20067;-69
2023/11/12 11:15:16;;;;;;;5.30;1.95;;;;;;;;;;5040720;28;20025;-69
2023/11/12 11:17:41;;;;;;;10.25;3.50;;;;;;;;;;5030296;28;20035;-70
2023/11/12 11:20:11;;;;;;;4.70;2.47;;;;;;;;;;5032083;28;20013;-69
2023/11/12 11:22:36;;;;;;;3.22;1.23;;;;;;;;;;5042639;28;20332;-69
2023/11/12 11:25:21;;;;;;;12.10;2.13;;;;;;;;;;5032993;28;20485;-69
2023/11/12 11:27:47;;;;;;;3.72;1.50;;;;;;;;;;5037587;28;20338;-69
2023/11/12 11:30:13;;;;;;;3.90;2.05;;;;;;;;;;5030772;28;20413;-69
2023/11/12 11:32:54;;;;;;;5.13;2.20;;;;;;;;;;5029886;28;20017;-69
2023/11/12 11:35:21;;;;;;;4.88;1.83;;;;;;;;;;5030535;28;20100;-69
2023/11/12 11:38:05;;;;;;;9.48;1.98;;;;;;;;;;5030177;28;20481;-69
2023/11/12 11:40:30;;;;;;;7.82;2.05;;;;;;;;;;5032857;28;20037;-68
2023/11/12 11:43:18;;;;;;;4.88;1.42;;;;;;;;;;5029937;28;20398;-68
2023/11/12 11:46:03;;;;;;;4.15;1.98;;;;;;;;;;5021142;28;20598;-69
2023/11/12 11:48:28;;;;;;;5.07;1.80;;;;;;;;;;5023345;28;20113;-69
2023/11/12 11:50:55;;;;;;;5.15;1.88;;;;;;;;;;5020757;28;20516;-69
2023/11/12 11:53:23;;;;;;;2.63;1.10;;;;;;;;;;5040588;28;20022;-69
2023/11/12 11:55:51;;;;;;;6.70;2.03;;;;;;;;;;5023229;28;20076;-69
2023/11/12 11:58:19;;;;;;;10.63;3.00;;;;;;;;;;5024727;28;20010;-69
2023/11/12 12:00:59;;;;;;;4.80;1.63;;;;;;;;;;5027944;28;20709;-69
2023/11/12 12:03:26;;;;;;;19.00;4.55;;;;;;;;;;5029793;28;20025;-69
2023/11/12 12:05:52;;;;;;;50.13;11.50;;;;;;;;;;5036771;28;20113;-69
2023/11/12 12:08:17;;;;;;;7.70;2.70;;;;;;;;;;5030459;28;20020;-68
2023/11/12 12:10:45;;;;;;;19.38;4.68;;;;;;;;;;5036520;28;20013;-69
2023/11/12 12:13:11;;;;;;;7.50;3.03;;;;;;;;;;5037319;28;20134;-69
2023/11/12 12:15:36;;;;;;;10.38;3.55;;;;;;;;;;5030251;28;20502;-69
2023/11/12 12:18:15;;;;;;;23.50;4.00;;;;;;;;;;5037337;28;20114;-68
2023/11/12 12:20:41;;;;;;;6.43;1.80;;;;;;;;;;5030350;28;20386;-69
2023/11/12 12:23:06;;;;;;;21.42;5.10;;;;;;;;;;5020894;28;20013;-68
2023/11/12 12:25:31;;;;;;;7.65;1.98;;;;;;;;;;5029655;28;20478;-71
2023/11/12 12:27:57;;;;;;;8.07;2.85;;;;;;;;;;5029554;28;20512;-68
2023/11/12 12:30:22;;;;;;;4.97;1.15;;;;;;;;;;5021930;28;20028;-69
2023/11/12 12:32:48;;;;;;;8.57;2.92;;;;;;;;;;5030139;28;20028;-69
2023/11/12 12:35:23;;;;;;;10.73;3.58;;;;;;;;;;5037162;28;20055;-68
2023/11/12 12:37:48;;;;;;;9.95;2.35;;;;;;;;;;5032037;28;20390;-68
2023/11/12 12:40:24;;;;;;;11.05;2.88;;;;;;;;;;5029533;28;20017;-69
2023/11/12 12:42:53;;;;;;;10.30;2.65;;;;;;;;;;5028200;28;20021;-69
2023/11/12 12:45:18;;;;;;;6.38;3.22;;;;;;;;;;5010567;28;20490;-69
2023/11/12 12:47:44;;;;;;;12.73;3.83;;;;;;;;;;5018855;28;20105;-68
2023/11/12 12:50:25;;;;;;;9.35;2.78;;;;;;;;;;5029482;28;20075;-68
2023/11/12 12:52:51;;;;;;;16.77;4.65;;;;;;;;;;5029446;28;20021;-69
2023/11/12 12:55:16;;;;;;;6.95;2.33;;;;;;;;;;5028990;28;20021;-69
2023/11/12 12:57:42;;;;;;;23.58;6.00;;;;;;;;;;5030132;28;20014;-69
2023/11/12 13:00:10;;;;;;;9.52;3.00;;;;;;;;;;5031016;28;20427;-69
2023/11/12 13:02:39;;;;;;;10.68;1.63;;;;;;;;;;5037315;28;20021;-68
2023/11/12 13:05:04;;;;;;;7.57;2.65;;;;;;;;;;5035674;28;20021;-68
2023/11/12 13:07:30;;;;;;;19.13;5.53;;;;;;;;;;5038190;28;20444;-68
2023/11/12 13:09:57;;;;;;;10.50;2.90;;;;;;;;;;5039516;28;20365;-69
2023/11/12 13:12:23;;;;;;;4.85;2.30;;;;;;;;;;5029717;28;20019;-69
2023/11/12 13:14:49;;;;;;;6.47;2.40;;;;;;;;;;5032071;28;20020;-69
2023/11/12 13:17:15;;;;;;;17.58;4.35;;;;;;;;;;5034203;28;20017;-69
2023/11/12 13:19:40;;;;;;;6.32;2.13;;;;;;;;;;5028739;28;20083;-69
2023/11/12 13:22:06;;;;;;;6.72;2.50;;;;;;;;;;5028733;28;20029;-70
2023/11/12 13:24:33;;;;;;;9.68;2.95;;;;;;;;;;5032492;28;20624;-69
2023/11/12 13:26:59;;;;;;;8.90;2.97;;;;;;;;;;5027836;28;20025;-69
2023/11/12 13:29:25;;;;;;;10.70;2.53;;;;;;;;;;5028140;28;20053;-69
2023/11/12 13:31:50;;;;;;;9.82;2.67;;;;;;;;;;5028136;28;20260;-69
2023/11/12 13:34:16;;;;;;;7.53;2.15;;;;;;;;;;5035336;28;20024;-69
2023/11/12 13:36:42;;;;;;;10.70;2.15;;;;;;;;;;5036133;28;20303;-69
2023/11/12 13:39:08;;;;;;;6.10;2.20;;;;;;;;;;5026472;28;20017;-68
2023/11/12 13:41:33;;;;;;;1.20;0.80;;;;;;;;;;5033115;28;20276;-68
2023/11/12 13:43:58;;;;;;;20.80;5.13;;;;;;;;;;5032509;28;20032;-68
2023/11/12 13:46:24;;;;;;;3.47;1.33;;;;;;;;;;5038845;28;20021;-68
2023/11/12 13:48:49;;;;;;;9.68;2.30;;;;;;;;;;5027151;28;20344;-68
2023/11/12 13:51:17;;;;;;;6.57;1.73;;;;;;;;;;5029546;28;20033;-68
2023/11/12 13:53:43;;;;;;;22.70;6.22;;;;;;;;;;5025957;28;20142;-68
2023/11/12 13:56:08;;;;;;;7.55;2.65;;;;;;;;;;5036266;28;20549;-68
2023/11/12 13:58:34;;;;;;;5.05;2.15;;;;;;;;;;5025406;28;20521;-68
2023/11/12 14:01:01;;;;;;;9.88;2.67;;;;;;;;;;5028027;28;20029;-68
2023/11/12 14:03:26;;;;;;;9.52;1.80;;;;;;;;;;5021959;28;20031;-68
2023/11/12 14:05:52;;;;;;;6.07;2.13;;;;;;;;;;5027888;28;20033;-69
2023/11/12 14:08:17;;;;;;;5.65;2.15;;;;;;;;;;5027194;28;20101;-68
2023/11/12 14:10:46;;;;;;;6.60;1.88;;;;;;;;;;5034805;28;20028;-68
2023/11/12 14:13:12;;;;;;;5.20;2.95;;;;;;;;;;5030981;28;20013;-68
2023/11/12 14:15:38;;;;;;;11.98;2.70;;;;;;;;;;5031733;28;20044;-68
2023/11/12 14:18:04;;;;;;;5.28;2.75;;;;;;;;;;5035502;28;20032;-68
2023/11/12 14:20:29;;;;;;;3.85;2.33;;;;;;;;;;5040284;28;20024;-68
2023/11/12 14:22:55;;;;;;;10.98;2.72;;;;;;;;;;5033112;28;20029;-69
2023/11/12 14:25:21;;;;;;;7.47;1.75;;;;;;;;;;5026565;28;20020;-69
2023/11/12 14:27:48;;;;;;;5.28;2.38;;;;;;;;;;5042157;28;20028;-68
2023/11/12 14:30:13;;;;;;;18.42;2.80;;;;;;;;;;5041742;28;20057;-68
2023/11/12 14:32:42;;;;;;;15.82;5.55;;;;;;;;;;5031473;28;20061;-69